Time;durP1;ratioP1;P1;durP2;ratioP2;P2;SDS_P1;SDS_P2;PMS_P1;PMS_P2;Temp;Humidity;BMP_temperature;BMP_pressure;BME280_temperature;BME280_humidity;BME280_pressure;Samples;Min_cycle;Max_cycle;Signal;HPM_P1;HPM_P2
2022/03/27 00:01:28;;;;;;;14.30;8.13;;;;;;;8.88;84.94;103130.28;5094992;28;20910;-71
2022/03/27 00:03:53;;;;;;;11.75;7.93;;;;;;;8.84;85.09;103129.34;5095398;28;20028;-72
2022/03/27 00:06:19;;;;;;;10.57;7.40;;;;;;;8.80;85.72;103124.94;5094364;28;20533;-71
2022/03/27 00:08:44;;;;;;;11.85;7.40;;;;;;;8.78;85.45;103131.81;5095132;28;20016;-71
2022/03/27 00:11:24;;;;;;;13.05;7.50;;;;;;;8.74;85.96;103130.00;5094982;28;20528;-71
2022/03/27 00:13:51;;;;;;;12.95;7.30;;;;;;;8.74;86.47;103134.31;5093905;28;20074;-71
2022/03/27 00:16:17;;;;;;;11.63;7.57;;;;;;;8.70;86.32;103130.78;5094874;28;20051;-71
2022/03/27 00:18:42;;;;;;;10.60;6.80;;;;;;;8.68;86.19;103132.47;5094603;28;20056;-71
2022/03/27 00:21:10;;;;;;;10.60;7.20;;;;;;;8.68;86.49;103132.47;5094550;28;20035;-71
2022/03/27 00:23:36;;;;;;;10.52;7.00;;;;;;;8.60;86.68;103131.41;5094986;28;20024;-71
2022/03/27 00:26:02;;;;;;;12.38;7.53;;;;;;;8.63;86.65;103139.28;5094782;28;20157;-71
2022/03/27 00:28:32;;;;;;;13.20;7.60;;;;;;;8.59;87.35;103130.53;5093764;28;20482;-71
2022/03/27 00:31:06;;;;;;;10.25;7.10;;;;;;;8.55;87.21;103125.25;5094598;28;20035;-71
2022/03/27 00:33:32;;;;;;;10.93;7.03;;;;;;;8.51;88.06;103126.03;5094579;28;20032;-71
2022/03/27 00:35:59;;;;;;;13.60;6.75;;;;;;;8.50;88.05;103129.47;5093785;28;20158;-71
2022/03/27 00:38:25;;;;;;;11.13;7.28;;;;;;;8.41;88.19;103122.38;5094336;28;20067;-71
2022/03/27 00:40:51;;;;;;;10.77;6.63;;;;;;;8.42;88.01;103127.56;5094331;28;20016;-71
2022/03/27 00:43:18;;;;;;;14.23;7.68;;;;;;;8.37;88.59;103133.47;5092183;28;20020;-71
2022/03/27 00:45:43;;;;;;;11.23;7.18;;;;;;;8.30;89.05;103132.47;5094377;28;20220;-71
2022/03/27 00:48:09;;;;;;;9.95;7.20;;;;;;;8.30;88.86;103127.25;5094553;28;20123;-71
2022/03/27 00:50:35;;;;;;;9.98;6.85;;;;;;;8.26;87.95;103127.19;5093614;28;20028;-71
2022/03/27 00:53:00;;;;;;;14.32;7.22;;;;;;;8.20;88.95;103126.19;5094421;28;20486;-71
2022/03/27 00:55:26;;;;;;;14.10;7.35;;;;;;;8.19;88.87;103123.56;5093308;28;20023;-71
2022/03/27 00:57:51;;;;;;;9.25;6.68;;;;;;;8.09;89.50;103122.47;5094023;28;20030;-71
2022/03/27 01:00:41;;;;;;;11.88;6.50;;;;;;;8.11;88.81;103120.78;5094279;28;20040;-71
2022/03/27 01:03:09;;;;;;;11.40;6.78;;;;;;;8.10;90.06;103119.03;5093635;28;20384;-71
2022/03/27 01:05:35;;;;;;;12.85;7.57;;;;;;;8.07;90.49;103112.88;5094034;28;20575;-71
2022/03/27 01:08:05;;;;;;;11.02;6.88;;;;;;;8.05;90.45;103115.47;5093912;28;20103;-71
2022/03/27 01:10:31;;;;;;;11.35;7.30;;;;;;;8.01;90.99;103113.63;5093158;28;20034;-71
2022/03/27 01:12:57;;;;;;;12.93;6.95;;;;;;;8.03;91.11;103116.25;5093997;28;20028;-71
2022/03/27 01:15:41;;;;;;;12.30;7.47;;;;;;;8.00;89.80;103114.47;5093874;28;20102;-71
2022/03/27 01:18:07;;;;;;;10.15;6.72;;;;;;;7.94;91.05;103116.91;5093364;28;20024;-72
2022/03/27 01:20:35;;;;;;;12.52;6.72;;;;;;;7.95;90.51;103118.69;5093479;28;20026;-71
2022/03/27 01:23:01;;;;;;;11.32;7.13;;;;;;;7.89;90.74;103118.53;5093782;28;20028;-71
2022/03/27 01:25:27;;;;;;;9.38;7.07;;;;;;;7.85;90.53;103116.72;5092937;28;20053;-72
2022/03/27 01:27:53;;;;;;;12.63;7.38;;;;;;;7.85;90.62;103116.72;5093732;28;20024;-71
2022/03/27 01:30:18;;;;;;;11.60;7.03;;;;;;;7.83;90.77;103118.38;5093484;28;20027;-71
2022/03/27 01:32:44;;;;;;;13.52;8.02;;;;;;;7.81;90.59;103117.47;5092645;28;20024;-71
2022/03/27 01:35:12;;;;;;;9.63;7.13;;;;;;;7.72;90.96;103121.59;5093551;28;20026;-71
2022/03/27 01:37:37;;;;;;;9.20;6.93;;;;;;;7.71;91.04;103117.22;5092639;28;20024;-71
2022/03/27 01:40:06;;;;;;;10.65;7.00;;;;;;;7.74;91.17;103117.31;5093540;28;20123;-71
2022/03/27 01:42:31;;;;;;;13.07;6.80;;;;;;;7.76;91.96;103113.88;5093139;28;20028;-72
2022/03/27 01:44:56;;;;;;;12.43;7.18;;;;;;;7.75;91.37;103115.59;5092527;28;20024;-71
2022/03/27 01:47:22;;;;;;;10.40;6.85;;;;;;;7.70;91.30;103115.47;5092822;28;20399;-71
2022/03/27 01:49:47;;;;;;;11.52;7.20;;;;;;;7.62;91.40;103109.22;5092967;28;20032;-71
2022/03/27 01:52:15;;;;;;;11.57;7.07;;;;;;;7.59;91.57;103114.34;5091929;28;20020;-71
2022/03/27 01:54:41;;;;;;;11.18;7.10;;;;;;;7.55;92.08;103117.69;5093018;28;20110;-71
2022/03/27 01:57:06;;;;;;;9.60;7.13;;;;;;;7.50;92.33;103124.50;5093455;28;20047;-71
2022/03/27 01:59:33;;;;;;;12.73;7.60;;;;;;;7.52;91.96;103120.22;5092174;28;20028;-72
2022/03/27 02:01:59;;;;;;;11.45;7.93;;;;;;;7.51;92.71;103118.44;5092918;28;20031;-71
2022/03/27 02:04:24;;;;;;;11.25;7.85;;;;;;;7.51;93.17;103118.44;5092620;28;20024;-71
2022/03/27 02:06:49;;;;;;;12.27;7.78;;;;;;;7.47;93.06;103119.22;5092145;28;20368;-71
2022/03/27 02:09:14;;;;;;;12.02;7.95;;;;;;;7.40;93.79;103117.31;5093150;28;20028;-71
2022/03/27 02:11:41;;;;;;;12.70;8.27;;;;;;;7.37;94.12;103117.22;5092513;28;20043;-71
2022/03/27 02:14:06;;;;;;;13.88;8.05;;;;;;;7.35;93.95;103119.75;5092278;28;20384;-71
2022/03/27 02:16:32;;;;;;;12.05;8.20;;;;;;;7.31;94.24;103112.75;5092499;28;20020;-71
2022/03/27 02:18:57;;;;;;;12.07;7.80;;;;;;;7.28;93.41;103113.53;5092423;28;20472;-71
2022/03/27 02:21:22;;;;;;;14.13;8.70;;;;;;;7.30;94.60;103110.13;5091783;28;20081;-71
2022/03/27 02:23:47;;;;;;;12.70;8.63;;;;;;;7.28;95.19;103113.53;5092631;28;20468;-71
2022/03/27 02:26:13;;;;;;;16.65;9.88;;;;;;;7.29;95.35;103114.41;5092627;28;20028;-71
2022/03/27 02:28:40;;;;;;;14.90;9.55;;;;;;;7.25;95.04;103108.25;5091653;28;20654;-71
2022/03/27 02:31:05;;;;;;;11.93;8.82;;;;;;;7.27;95.01;103110.91;5092647;28;20028;-71
2022/03/27 02:33:30;;;;;;;15.93;10.70;;;;;;;7.24;95.99;103109.13;5092111;28;20034;-71
2022/03/27 02:35:56;;;;;;;17.42;10.15;;;;;;;7.21;95.95;103114.22;5091667;28;20467;-71
2022/03/27 02:38:21;;;;;;;17.30;10.52;;;;;;;7.17;96.30;103111.50;5092257;28;20388;-71
2022/03/27 02:40:46;;;;;;;14.40;9.95;;;;;;;7.14;96.94;103109.72;5091361;28;20063;-71
2022/03/27 02:43:12;;;;;;;18.27;10.85;;;;;;;7.15;96.91;103106.28;5092235;28;20035;-71
2022/03/27 02:45:39;;;;;;;16.98;10.75;;;;;;;7.25;97.65;103107.41;5091937;28;20020;-71
2022/03/27 02:48:05;;;;;;;16.05;11.98;;;;;;;7.33;97.46;103112.81;5091358;28;20047;-71
2022/03/27 02:50:31;;;;;;;18.50;12.27;;;;;;;7.37;97.90;103106.84;5091705;28;20041;-71
2022/03/27 02:52:57;;;;;;;19.83;12.45;;;;;;;7.43;97.74;103096.63;5092016;28;20461;-71
2022/03/27 02:55:23;;;;;;;25.52;13.18;;;;;;;7.51;97.57;103101.16;5091067;28;20024;-71
2022/03/27 02:57:49;;;;;;;21.25;13.80;;;;;;;7.55;97.44;103102.09;5091972;28;20077;-71
2022/03/27 03:00:15;;;;;;;21.13;13.93;;;;;;;7.58;97.86;103091.81;5091872;28;20107;-71
2022/03/27 03:02:40;;;;;;;23.42;15.02;;;;;;;7.57;98.47;103097.84;5090850;28;20480;-71
2022/03/27 03:05:07;;;;;;;25.20;14.32;;;;;;;7.60;97.93;103100.50;5091377;28;20047;-72
2022/03/27 03:07:33;;;;;;;26.40;16.38;;;;;;;7.59;98.81;103101.38;5091727;28;20024;-71
2022/03/27 03:10:00;;;;;;;24.23;16.02;;;;;;;7.56;99.32;103098.69;5091037;28;20024;-71
2022/03/27 03:12:26;;;;;;;26.02;16.88;;;;;;;7.56;99.33;103096.09;5091628;28;20035;-71
2022/03/27 03:14:55;;;;;;;24.67;16.70;;;;;;;7.64;98.80;103102.34;5091814;28;20475;-71
2022/03/27 03:17:21;;;;;;;27.42;17.42;;;;;;;7.62;99.11;103101.44;5090631;28;20028;-71
2022/03/27 03:19:46;;;;;;;28.95;17.17;;;;;;;7.62;99.38;103105.72;5091858;28;20020;-71
2022/03/27 03:22:11;;;;;;;23.10;15.68;;;;;;;7.66;98.52;103092.00;5091576;28;20494;-71
2022/03/27 03:24:37;;;;;;;27.65;16.63;;;;;;;7.71;98.43;103098.19;5090744;28;20032;-71
2022/03/27 03:27:03;;;;;;;24.70;16.23;;;;;;;7.76;98.82;103091.38;5092317;28;20043;-71
2022/03/27 03:29:28;;;;;;;25.38;16.40;;;;;;;7.73;98.87;103091.31;5091210;28;20124;-71
2022/03/27 03:31:54;;;;;;;25.02;17.00;;;;;;;7.75;98.79;103092.25;5090560;28;20605;-71
2022/03/27 03:34:19;;;;;;;28.73;16.98;;;;;;;7.69;99.63;103082.56;5091608;28;20028;-71
2022/03/27 03:36:45;;;;;;;24.05;16.20;;;;;;;7.74;98.26;103083.53;5091553;28;20044;-71
2022/03/27 03:39:10;;;;;;;29.83;16.63;;;;;;;7.75;98.42;103084.44;5090781;28;20028;-72
2022/03/27 03:41:36;;;;;;;26.98;17.13;;;;;;;7.78;98.57;103087.09;5091634;28;20165;-71
2022/03/27 03:44:01;;;;;;;28.50;17.80;;;;;;;7.78;98.30;103083.63;5091493;28;20104;-71
2022/03/27 03:46:27;;;;;;;26.02;17.10;;;;;;;7.78;98.49;103088.81;5090560;28;20039;-72
2022/03/27 03:48:52;;;;;;;25.40;16.73;;;;;;;7.78;98.51;103087.09;5091142;28;20047;-72
2022/03/27 03:51:17;;;;;;;24.42;16.45;;;;;;;7.78;98.27;103084.50;5090631;28;20472;-71
2022/03/27 03:53:43;;;;;;;26.98;17.65;;;;;;;7.77;98.72;103087.06;5091344;28;20078;-71
2022/03/27 03:56:08;;;;;;;26.67;17.67;;;;;;;7.73;98.90;103087.00;5091760;28;20024;-71
2022/03/27 03:58:34;;;;;;;27.52;17.48;;;;;;;7.71;99.28;103087.78;5090425;28;20027;-71
2022/03/27 04:00:59;;;;;;;28.00;18.02;;;;;;;7.72;98.90;103092.16;5091186;28;20036;-71
2022/03/27 04:03:24;;;;;;;26.42;17.65;;;;;;;7.68;99.54;103087.72;5091189;28;20056;-71
2022/03/27 04:05:50;;;;;;;31.73;18.52;;;;;;;7.74;99.56;103101.72;5090587;28;20028;-72
2022/03/27 04:08:15;;;;;;;25.95;16.73;;;;;;;7.78;98.99;103094.00;5091351;28;20383;-71
2022/03/27 04:10:41;;;;;;;24.77;16.67;;;;;;;7.81;98.91;103092.34;5091001;28;20043;-71
2022/03/27 04:13:09;;;;;;;24.17;16.33;;;;;;;7.79;99.26;103095.78;5090814;28;20024;-71
2022/03/27 04:15:34;;;;;;;26.48;17.17;;;;;;;7.71;99.53;103092.97;5091663;28;20035;-71
2022/03/27 04:18:00;;;;;;;24.15;16.10;;;;;;;7.69;99.48;103097.28;5095174;28;20107;-71
2022/03/27 04:20:26;;;;;;;24.92;16.65;;;;;;;7.67;99.30;103094.63;5094056;28;20028;-71
2022/03/27 04:22:51;;;;;;;26.15;15.95;;;;;;;7.68;99.34;103086.03;5094773;28;20046;-71
2022/03/27 04:25:16;;;;;;;27.60;17.48;;;;;;;7.65;100.00;103087.63;5094711;28;20028;-71
2022/03/27 04:27:41;;;;;;;25.30;16.67;;;;;;;7.63;100.00;103085.03;5093804;28;20490;-71
2022/03/27 04:30:09;;;;;;;26.40;17.52;;;;;;;7.61;100.00;103085.81;5094906;28;20017;-71
2022/03/27 04:32:35;;;;;;;24.98;17.80;;;;;;;7.64;100.00;103088.50;5094737;28;20036;-71
2022/03/27 04:35:01;;;;;;;27.67;17.02;;;;;;;7.67;100.00;103086.84;5093869;28;20028;-71
2022/03/27 04:37:27;;;;;;;26.20;16.90;;;;;;;7.66;100.00;103089.41;5094345;28;20031;-71
2022/03/27 04:39:52;;;;;;;25.05;17.25;;;;;;;7.69;100.00;103090.38;5094594;28;20043;-71
2022/03/27 04:42:17;;;;;;;24.98;15.73;;;;;;;7.61;100.00;103076.31;5093657;28;20024;-71
2022/03/27 04:44:43;;;;;;;27.23;17.65;;;;;;;7.67;100.00;103086.84;5094141;28;20068;-71
2022/03/27 04:47:08;;;;;;;27.13;17.40;;;;;;;7.69;100.00;103086.91;5094617;28;20040;-71
2022/03/27 04:49:33;;;;;;;25.05;17.27;;;;;;;7.66;100.00;103092.00;5093809;28;20040;-71
2022/03/27 04:51:59;;;;;;;29.45;18.02;;;;;;;7.60;100.00;103095.31;5094355;28;20468;-71
2022/03/27 04:54:24;;;;;;;28.17;17.40;;;;;;;7.56;100.00;103090.91;5093408;28;20031;-71
2022/03/27 04:56:50;;;;;;;25.42;18.00;;;;;;;7.58;100.00;103094.41;5094093;28;20532;-72
2022/03/27 04:59:15;;;;;;;29.42;18.17;;;;;;;7.57;100.00;103084.88;5094524;28;20020;-71
2022/03/27 05:01:41;;;;;;;29.05;19.00;;;;;;;7.63;100.00;103092.81;5093348;28;20035;-71
2022/03/27 05:04:07;;;;;;;29.40;17.90;;;;;;;7.56;100.00;103090.91;5094507;28;20055;-71
2022/03/27 05:06:33;;;;;;;27.42;18.38;;;;;;;7.63;100.00;103100.59;5093889;28;20071;-71
2022/03/27 05:08:58;;;;;;;28.60;18.63;;;;;;;7.61;100.00;103096.19;5093281;28;20387;-71
2022/03/27 05:11:25;;;;;;;27.77;19.27;;;;;;;7.65;100.00;103106.72;5093803;28;20020;-71
2022/03/27 05:13:50;;;;;;;30.08;19.80;;;;;;;7.57;100.00;103104.75;5093745;28;20103;-71
2022/03/27 05:16:15;;;;;;;31.25;20.02;;;;;;;7.54;100.00;103110.75;5093020;28;20158;-71
2022/03/27 05:18:41;;;;;;;30.63;19.83;;;;;;;7.49;100.00;103113.22;5093617;28;20075;-71
2022/03/27 05:21:06;;;;;;;31.23;20.27;;;;;;;7.49;100.00;103112.38;5094134;28;20387;-71
2022/03/27 05:23:31;;;;;;;30.42;19.85;;;;;;;7.49;100.00;103117.56;5092788;28;20028;-71
2022/03/27 05:25:56;;;;;;;36.53;22.27;;;;;;;7.45;100.00;103110.50;5093474;28;20039;-71
2022/03/27 05:28:22;;;;;;;36.08;22.73;;;;;;;7.40;100.00;103114.72;5092480;28;20051;-71
2022/03/27 05:30:47;;;;;;;34.47;22.10;;;;;;;7.41;100.00;103119.94;5092566;28;20384;-71
2022/03/27 05:33:12;;;;;;;34.67;21.88;;;;;;;7.45;100.00;103123.47;5093265;28;20368;-71
2022/03/27 05:35:38;;;;;;;37.70;22.00;;;;;;;7.46;100.00;103118.34;5093461;28;20032;-72
2022/03/27 05:38:07;;;;;;;36.08;22.88;;;;;;;7.50;100.00;103120.16;5092875;28;20107;-71
2022/03/27 05:40:32;;;;;;;34.25;20.98;;;;;;;7.49;100.00;103112.38;5093260;28;20026;-71
2022/03/27 05:42:58;;;;;;;33.88;21.35;;;;;;;7.50;100.00;103114.09;5093269;28;20383;-71
2022/03/27 05:45:23;;;;;;;37.72;21.38;;;;;;;7.50;100.00;103127.97;5092501;28;20038;-71
2022/03/27 05:47:49;;;;;;;36.63;20.02;;;;;;;7.48;100.00;103121.84;5093024;28;20040;-71
2022/03/27 05:50:18;;;;;;;34.00;20.27;;;;;;;7.49;100.00;103123.63;5093187;28;20024;-71
2022/03/27 05:52:44;;;;;;;33.95;19.77;;;;;;;7.41;100.00;103125.13;5092389;28;20590;-71
2022/03/27 05:55:11;;;;;;;33.35;20.67;;;;;;;7.42;100.00;103128.59;5093022;28;20051;-71
2022/03/27 05:57:37;;;;;;;29.50;18.77;;;;;;;7.42;100.00;103133.78;5092827;28;20060;-71
2022/03/27 06:00:05;;;;;;;35.00;20.33;;;;;;;7.38;100.00;103124.16;5092832;28;20556;-71
2022/03/27 06:02:30;;;;;;;30.90;17.92;;;;;;;7.40;100.00;103135.47;5092898;28;20028;-71
2022/03/27 06:04:55;;;;;;;30.67;19.10;;;;;;;7.41;100.00;103137.22;5092093;28;20054;-71
2022/03/27 06:07:20;;;;;;;30.27;18.05;;;;;;;7.40;100.00;103138.06;5092751;28;20059;-71
2022/03/27 06:09:46;;;;;;;29.85;17.75;;;;;;;7.37;100.00;103138.88;5092733;28;20383;-71
2022/03/27 06:12:12;;;;;;;27.95;17.63;;;;;;;7.38;100.00;103142.34;5091724;28;20039;-71
2022/03/27 06:14:37;;;;;;;32.08;18.45;;;;;;;7.40;100.00;103144.13;5092810;28;20053;-71
2022/03/27 06:17:03;;;;;;;30.83;18.90;;;;;;;7.40;100.00;103144.13;5092985;28;20422;-71
2022/03/27 06:19:30;;;;;;;31.95;18.80;;;;;;;7.45;100.00;103149.44;5091836;28;20534;-71
2022/03/27 06:21:56;;;;;;;33.45;18.42;;;;;;;7.48;100.00;103142.59;5092591;28;20103;-71
2022/03/27 06:24:22;;;;;;;32.95;18.40;;;;;;;7.45;100.00;103145.13;5092360;28;20040;-71
2022/03/27 06:26:47;;;;;;;32.25;17.55;;;;;;;7.40;100.00;103153.63;5091508;28;20471;-71
2022/03/27 06:29:14;;;;;;;30.52;17.90;;;;;;;7.35;100.00;103140.53;5092586;28;20087;-71
2022/03/27 06:31:39;;;;;;;40.22;17.75;;;;;;;7.27;100.00;103140.34;5092333;28;20028;-71
2022/03/27 06:34:06;;;;;;;41.95;16.23;;;;;;;7.28;100.00;103154.19;5091967;28;20069;-71
2022/03/27 06:36:32;;;;;;;32.28;17.50;;;;;;;7.24;100.00;103154.94;5092090;28;20395;-71
2022/03/27 06:38:58;;;;;;;32.83;17.70;;;;;;;7.21;100.00;103158.31;5092022;28;20403;-71
2022/03/27 06:41:23;;;;;;;35.85;18.90;;;;;;;7.17;100.00;103147.84;5091247;28;20020;-71
2022/03/27 06:43:48;;;;;;;38.35;19.05;;;;;;;7.21;100.00;103162.63;5092306;28;20437;-71
2022/03/27 06:46:16;;;;;;;38.05;18.80;;;;;;;7.16;100.00;103141.78;5092230;28;20547;-71
2022/03/27 06:48:43;;;;;;;37.40;19.17;;;;;;;7.24;100.00;103155.81;5090962;28;20044;-71
2022/03/27 06:51:08;;;;;;;38.03;19.05;;;;;;;7.21;100.00;103153.13;5092322;28;20028;-71
2022/03/27 06:53:33;;;;;;;38.38;19.42;;;;;;;7.28;100.00;103155.06;5091857;28;20031;-71
2022/03/27 06:55:59;;;;;;;36.38;19.10;;;;;;;7.35;100.00;103158.69;5091203;28;20054;-71
2022/03/27 06:58:24;;;;;;;39.25;19.92;;;;;;;7.34;100.00;103154.34;5091920;28;20471;-71
2022/03/27 07:03:33;;;;;;;38.80;19.15;;;;;;;7.35;100.00;103156.09;5091773;28;20089;-71
2022/03/27 07:05:58;;;;;;;37.40;20.10;;;;;;;7.44;100.00;103160.66;5091669;28;20016;-71
2022/03/27 07:08:24;;;;;;;38.28;19.38;;;;;;;7.48;100.00;103149.50;5090792;28;20357;-71
2022/03/27 07:10:50;;;;;;;38.30;19.33;;;;;;;7.46;100.00;103151.22;5091862;28;20032;-71
2022/03/27 07:13:17;;;;;;;37.05;19.58;;;;;;;7.50;100.00;103161.69;5091899;28;20024;-71
2022/03/27 07:15:45;;;;;;;41.22;20.92;;;;;;;7.49;100.00;103154.75;5090830;28;20032;-71
2022/03/27 07:18:11;;;;;;;42.53;21.38;;;;;;;7.52;100.00;103161.75;5091785;28;20055;-71
2022/03/27 07:20:40;;;;;;;37.50;20.65;;;;;;;7.51;100.00;103160.84;5091553;28;20028;-71
2022/03/27 07:23:09;;;;;;;40.13;20.05;;;;;;;7.54;100.00;103157.47;5091120;28;20395;-71
2022/03/27 07:25:36;;;;;;;50.25;21.88;;;;;;;7.56;100.00;103161.00;5091937;28;20534;-71
2022/03/27 07:28:06;;;;;;;44.47;21.25;;;;;;;7.59;100.00;103155.88;5091720;28;20467;-71
2022/03/27 07:30:32;;;;;;;43.97;21.35;;;;;;;7.66;99.98;103155.19;5090449;28;20081;-71
2022/03/27 07:32:57;;;;;;;44.97;22.27;;;;;;;7.70;100.00;103161.34;5091570;28;20059;-71
2022/03/27 07:35:25;;;;;;;47.22;22.67;;;;;;;7.78;100.00;103157.19;5091269;28;20443;-71
2022/03/27 07:37:52;;;;;;;46.00;23.27;;;;;;;7.79;99.84;103163.31;5090586;28;20097;-71
2022/03/27 07:40:19;;;;;;;45.70;22.10;;;;;;;7.80;98.87;103165.91;5091274;28;20024;-71
2022/03/27 07:42:50;;;;;;;48.08;23.33;;;;;;;7.74;99.32;103166.63;5091269;28;20024;-72
2022/03/27 07:45:21;;;;;;;54.85;24.85;;;;;;;7.71;99.89;103170.88;5090651;28;20055;-71
2022/03/27 07:47:48;;;;;;;46.15;22.85;;;;;;;7.76;99.70;103164.09;5091185;28;20046;-71
2022/03/27 07:50:14;;;;;;;46.22;22.67;;;;;;;7.87;99.42;103160.03;5090816;28;20030;-71
2022/03/27 07:52:39;;;;;;;46.65;21.83;;;;;;;7.94;98.95;103151.53;5096290;27;20035;-71
2022/03/27 07:55:07;;;;;;;48.63;21.42;;;;;;;8.02;98.35;103163.88;5127952;27;20028;-71
2022/03/27 07:57:32;;;;;;;39.70;19.63;;;;;;;7.99;97.98;103149.06;5115368;27;20032;-71
2022/03/27 07:59:58;;;;;;;42.42;21.05;;;;;;;8.02;97.44;103151.75;5118774;27;20115;-71
2022/03/27 08:02:23;;;;;;;38.58;18.98;;;;;;;7.97;97.27;103155.94;5134278;27;20042;-72
2022/03/27 08:04:49;;;;;;;38.38;19.17;;;;;;;7.95;97.13;103149.84;5135258;27;20023;-72
2022/03/27 08:07:15;;;;;;;40.67;19.25;;;;;;;8.01;97.40;103157.81;5128322;27;20023;-71
2022/03/27 08:09:40;;;;;;;37.50;19.02;;;;;;;8.08;96.63;103156.22;5129444;27;20034;-71
2022/03/27 08:12:10;;;;;;;30.17;16.35;;;;;;;8.15;96.76;103159.00;5133864;27;20027;-71
2022/03/27 08:14:36;;;;;;;30.67;16.88;;;;;;;8.12;95.87;103158.91;5134290;27;20148;-72
2022/03/27 08:17:03;;;;;;;32.55;17.52;;;;;;;8.16;95.78;103155.53;5136051;27;20055;-71
2022/03/27 08:19:28;;;;;;;31.60;16.77;;;;;;;8.13;95.48;103158.06;5134870;27;20437;-71
2022/03/27 08:21:54;;;;;;;29.17;16.17;;;;;;;8.13;94.88;103152.88;5124545;27;20081;-71
2022/03/27 08:24:20;;;;;;;33.88;17.20;;;;;;;8.18;95.28;103161.66;5115339;28;20020;-72
2022/03/27 08:26:59;;;;;;;28.75;16.15;;;;;;;8.16;95.03;103160.75;5123731;27;20020;-71
2022/03/27 08:29:30;;;;;;;30.33;16.98;;;;;;;8.24;95.03;103165.22;5102943;27;20019;-71
2022/03/27 08:31:59;;;;;;;27.83;16.20;;;;;;;8.32;94.17;103163.69;5120364;27;20032;-71
2022/03/27 08:34:24;;;;;;;31.20;16.35;;;;;;;8.41;94.24;103162.22;5126436;27;20106;-71
2022/03/27 08:36:50;;;;;;;28.45;16.20;;;;;;;8.44;93.57;103161.41;5135599;27;20062;-71
2022/03/27 08:39:15;;;;;;;33.47;18.10;;;;;;;8.55;93.25;103159.94;5126679;27;20046;-71
2022/03/27 08:41:44;;;;;;;32.85;18.52;;;;;;;8.64;92.68;103156.66;5124693;27;20022;-73
2022/03/27 08:44:12;;;;;;;32.55;18.23;;;;;;;8.64;92.66;103161.84;5121188;27;20035;-71
2022/03/27 08:46:39;;;;;;;34.58;18.35;;;;;;;8.56;92.19;103164.28;5113773;28;20059;-71
2022/03/27 08:49:26;;;;;;;33.47;18.80;;;;;;;8.54;92.85;103155.59;5121000;27;20027;-71
2022/03/27 08:52:02;;;;;;;33.75;18.95;;;;;;;8.63;92.68;103150.59;5135079;27;20031;-72
2022/03/27 08:54:54;;;;;;;35.38;20.00;;;;;;;8.72;92.55;103155.09;5134252;27;20051;-71
2022/03/27 08:57:24;;;;;;;38.55;19.20;;;;;;;8.65;92.49;103161.00;5122685;27;20114;-71
2022/03/27 08:59:53;;;;;;;34.72;18.73;;;;;;;8.61;92.15;103162.66;5121919;27;20023;-71
2022/03/27 09:02:25;;;;;;;34.63;18.90;;;;;;;8.65;91.59;103155.81;5132677;27;20035;-71
2022/03/27 09:04:53;;;;;;;29.73;16.85;;;;;;;8.61;91.15;103164.38;5133238;27;20088;-71
2022/03/27 09:07:19;;;;;;;32.83;17.92;;;;;;;8.63;91.60;103168.78;5126412;27;20024;-71
2022/03/27 09:09:44;;;;;;;33.70;18.00;;;;;;;8.65;91.20;103179.22;5113676;28;20057;-71
2022/03/27 09:12:10;;;;;;;33.03;18.15;;;;;;;8.73;90.71;103180.25;5119340;27;20032;-71
2022/03/27 09:14:36;;;;;;;31.30;17.80;;;;;;;8.77;91.16;103178.59;5114196;28;20035;-71
2022/03/27 09:17:06;;;;;;;38.17;19.33;;;;;;;8.72;90.63;103177.63;5100455;28;20387;-72
2022/03/27 09:19:36;;;;;;;35.17;19.92;;;;;;;8.66;90.33;103176.66;5093616;28;20034;-72
2022/03/27 09:22:29;;;;;;;36.33;19.35;;;;;;;8.74;91.50;103171.59;5113590;28;20053;-71
2022/03/27 09:25:00;;;;;;;33.97;18.63;;;;;;;8.78;90.52;103186.44;5087700;28;20036;-72
2022/03/27 09:27:33;;;;;;;37.70;20.30;;;;;;;8.85;90.40;103184.84;5103979;27;20094;-71
2022/03/27 09:30:06;;;;;;;32.97;18.13;;;;;;;8.93;89.42;103180.69;5113061;28;20038;-71
2022/03/27 09:32:35;;;;;;;36.50;19.25;;;;;;;8.95;89.54;103178.97;5112222;28;20054;-71
2022/03/27 09:35:08;;;;;;;32.47;18.65;;;;;;;9.04;89.93;103186.09;5109486;28;20033;-71
2022/03/27 09:37:38;;;;;;;30.88;18.50;;;;;;;9.03;88.32;103180.03;5120858;27;20034;-71
2022/03/27 09:40:10;;;;;;;31.25;17.70;;;;;;;9.09;88.71;103169.75;5093687;28;20028;-72
2022/03/27 09:42:37;;;;;;;31.15;17.42;;;;;;;9.12;87.95;103179.31;5108980;28;20509;-71
2022/03/27 09:45:19;;;;;;;27.25;15.93;;;;;;;9.24;88.32;103170.88;5118212;27;20360;-83
2022/03/27 09:47:48;;;;;;;32.28;16.60;;;;;;;9.28;86.87;103170.06;5121375;27;20058;-71
2022/03/27 09:50:33;;;;;;;29.58;15.10;;;;;;;9.32;87.78;103171.91;5112720;28;20035;-72
2022/03/27 09:53:20;;;;;;;26.10;15.95;;;;;;;9.44;87.38;103168.63;5114451;27;20029;-71
2022/03/27 09:55:51;;;;;;;26.30;15.48;;;;;;;9.57;87.16;103166.28;5113356;28;20027;-71
2022/03/27 09:58:16;;;;;;;25.60;14.98;;;;;;;9.60;86.33;103153.31;5114482;27;20523;-72
2022/03/27 10:00:42;;;;;;;29.77;16.52;;;;;;;9.65;85.58;103150.81;5121972;27;20043;-71
2022/03/27 10:03:11;;;;;;;28.73;16.23;;;;;;;9.60;86.06;103158.53;5133293;27;20470;-71
2022/03/27 10:05:37;;;;;;;31.00;17.35;;;;;;;9.68;86.19;103145.66;5122332;27;20559;-71
2022/03/27 10:08:03;;;;;;;30.20;17.25;;;;;;;9.80;86.70;103144.97;5102898;27;20475;-71
2022/03/27 10:10:29;;;;;;;29.48;16.70;;;;;;;9.80;85.91;103142.34;5127736;27;20030;-71
2022/03/27 10:12:58;;;;;;;30.30;17.50;;;;;;;9.85;85.93;103128.56;5132872;27;20078;-71
2022/03/27 10:15:27;;;;;;;29.30;17.20;;;;;;;9.95;85.75;103137.41;5121465;27;20163;-71
2022/03/27 10:17:56;;;;;;;31.13;17.67;;;;;;;10.01;85.96;103124.47;5112791;28;20050;-71
2022/03/27 10:20:25;;;;;;;30.63;17.35;;;;;;;10.23;85.31;103127.38;5112599;28;20517;-71
2022/03/27 10:23:07;;;;;;;32.05;17.65;;;;;;;10.33;84.12;103124.06;5112967;28;20032;-71
2022/03/27 10:25:50;;;;;;;29.17;16.92;;;;;;;10.30;83.68;103121.47;5111949;27;20483;-71
2022/03/27 10:28:18;;;;;;;31.30;17.63;;;;;;;10.48;84.53;103131.25;5113772;27;20377;-71
2022/03/27 10:30:44;;;;;;;27.65;17.20;;;;;;;10.79;82.63;103127.31;5112775;27;20031;-72
2022/03/27 10:33:10;;;;;;;29.02;16.75;;;;;;;10.99;81.59;103117.09;5112174;27;20050;-71
2022/03/27 10:35:49;;;;;;;26.00;16.52;;;;;;;11.10;81.07;103123.31;5132494;27;20031;-72
2022/03/27 10:38:19;;;;;;;28.95;16.67;;;;;;;11.17;80.46;103121.63;5131197;27;20054;-72
2022/03/27 10:40:52;;;;;;;29.75;16.92;;;;;;;11.22;79.81;103118.22;5115844;27;20019;-72
2022/03/27 10:43:31;;;;;;;29.00;17.67;;;;;;;11.26;79.62;103119.13;5126862;27;20057;-72
2022/03/27 10:46:19;;;;;;;29.17;18.25;;;;;;;11.41;78.98;103107.94;5117502;27;20404;-72
2022/03/27 10:48:46;;;;;;;27.35;17.40;;;;;;;11.41;78.04;103114.06;5112103;28;20051;-72
2022/03/27 10:51:32;;;;;;;29.17;17.88;;;;;;;11.80;79.14;103106.50;5103067;28;20040;-72
2022/03/27 10:54:01;;;;;;;28.55;17.13;;;;;;;12.03;77.28;103114.56;5091980;28;20028;-72
2022/03/27 10:56:37;;;;;;;23.73;15.15;;;;;;;12.21;75.63;103109.44;5109797;27;20051;-72
2022/03/27 10:59:27;;;;;;;24.88;16.10;;;;;;;12.55;75.90;103094.78;5124253;27;20038;-72
2022/03/27 11:01:58;;;;;;;24.08;15.75;;;;;;;12.59;73.66;103098.31;5113518;27;20027;-72
2022/03/27 11:04:41;;;;;;;27.63;17.05;;;;;;;12.55;74.96;103100.00;5101971;27;20023;-72
2022/03/27 11:07:15;;;;;;;26.13;16.35;;;;;;;12.35;75.15;103097.31;5133131;27;20107;-71
2022/03/27 11:09:44;;;;;;;23.88;16.35;;;;;;;12.27;75.72;103095.53;5132495;27;20023;-72
2022/03/27 11:12:25;;;;;;;24.80;16.45;;;;;;;12.20;76.38;103086.78;5130785;27;20164;-73
2022/03/27 11:14:53;;;;;;;25.42;15.73;;;;;;;12.22;74.83;103095.50;5113707;27;20023;-73
2022/03/27 11:17:44;;;;;;;24.02;16.52;;;;;;;12.27;75.32;103082.47;5119350;27;20083;-72
2022/03/27 11:20:22;;;;;;;25.23;16.70;;;;;;;12.27;75.96;103088.56;5130820;27;20027;-72
2022/03/27 11:22:55;;;;;;;24.02;15.70;;;;;;;12.34;75.56;103071.16;5131133;27;20046;-73